Time;durP1;ratioP1;P1;durP2;ratioP2;P2;SDS_P1;SDS_P2;PMS_P1;PMS_P2;Temp;Humidity;BMP_temperature;BMP_pressure;BME280_temperature;BME280_humidity;BME280_pressure;Samples;Min_cycle;Max_cycle;Signal;HPM_P1;HPM_P2
2022/04/02 00:01:22;;;;;;;2.88;1.23;;;;;;;3.21;49.67;100641.31;5063655;28;20076;-71
2022/04/02 00:03:49;;;;;;;2.42;1.00;;;;;;;2.91;49.86;100640.28;5065876;28;20052;-71
2022/04/02 00:06:16;;;;;;;7.97;1.83;;;;;;;2.95;50.24;100638.47;5063808;28;20572;-71
2022/04/02 00:08:42;;;;;;;3.28;1.55;;;;;;;3.16;49.45;100637.97;5065602;28;20102;-71
2022/04/02 00:11:09;;;;;;;2.55;1.35;;;;;;;3.25;49.18;100631.75;5064611;28;20056;-71
2022/04/02 00:13:35;;;;;;;2.15;0.90;;;;;;;2.90;50.19;100633.38;5064283;28;20079;-71
2022/04/02 00:16:04;;;;;;;3.28;1.13;;;;;;;3.01;50.14;100629.69;5065297;28;20079;-71
2022/04/02 00:18:31;;;;;;;6.43;1.23;;;;;;;2.92;50.20;100636.78;5065512;28;20152;-71
2022/04/02 00:20:58;;;;;;;6.47;1.55;;;;;;;2.72;50.51;100631.19;5061629;28;20512;-71
2022/04/02 00:26:19;;;;;;;3.20;1.25;;;;;;;3.10;50.10;100637.28;5028183;28;20083;-71
2022/04/02 00:28:48;;;;;;;2.67;1.20;;;;;;;3.19;49.71;100634.44;5063704;28;20135;-71
2022/04/02 00:31:16;;;;;;;6.55;1.75;;;;;;;2.97;50.29;100638.41;5064462;28;20068;-71
2022/04/02 00:33:45;;;;;;;4.80;1.48;;;;;;;2.85;50.78;100640.38;5062952;28;20072;-71
2022/04/02 00:36:12;;;;;;;2.05;1.02;;;;;;;3.01;50.21;100634.88;5065634;28;20062;-71
2022/04/02 00:38:39;;;;;;;2.25;1.13;;;;;;;2.96;50.53;100644.50;5064711;28;20060;-71
2022/04/02 00:41:05;;;;;;;5.75;1.50;;;;;;;2.74;50.90;100647.53;5064325;28;20052;-71
2022/04/02 00:43:33;;;;;;;5.40;1.27;;;;;;;2.68;51.28;100639.06;5064746;28;20068;-71
2022/04/02 00:46:01;;;;;;;3.33;1.20;;;;;;;2.66;51.43;100646.00;5064886;28;20428;-71
2022/04/02 00:48:29;;;;;;;2.05;1.17;;;;;;;2.72;51.37;100643.28;5063406;28;20044;-71
2022/04/02 00:50:58;;;;;;;3.45;1.10;;;;;;;2.71;51.52;100642.44;5046971;28;20044;-71
2022/04/02 00:53:26;;;;;;;2.83;1.00;;;;;;;2.54;52.07;100636.75;5051256;28;20094;-71
2022/04/02 00:55:53;;;;;;;2.97;1.45;;;;;;;2.59;52.27;100645.25;5063456;28;20067;-71
2022/04/02 00:58:19;;;;;;;5.45;1.55;;;;;;;2.88;51.29;100645.50;5064742;28;20051;-71
2022/04/02 01:00:46;;;;;;;3.67;1.10;;;;;;;2.56;52.06;100650.50;5063363;28;20076;-71
2022/04/02 01:03:15;;;;;;;4.63;1.77;;;;;;;2.59;52.01;100650.44;5062914;28;20102;-71
2022/04/02 01:05:44;;;;;;;2.42;1.23;;;;;;;2.49;52.25;100650.66;5045172;28;20498;-71
2022/04/02 01:08:11;;;;;;;2.80;1.45;;;;;;;2.51;52.35;100649.78;5062405;28;20121;-71
2022/04/02 01:10:40;;;;;;;4.72;1.52;;;;;;;2.65;52.50;100657.25;5062818;28;20048;-71
2022/04/02 01:13:07;;;;;;;4.50;1.23;;;;;;;2.94;51.74;100655.75;5064047;28;20044;-71
2022/04/02 01:15:33;;;;;;;7.00;1.40;;;;;;;2.44;52.71;100653.34;5062701;28;20274;-71
2022/04/02 01:18:00;;;;;;;3.30;1.50;;;;;;;2.50;53.12;100658.41;5064793;28;20106;-71
2022/04/02 01:20:28;;;;;;;3.53;1.45;;;;;;;2.62;52.62;100658.16;5062063;28;20048;-71
2022/04/02 01:22:56;;;;;;;3.88;1.30;;;;;;;2.66;52.73;100664.97;5064485;28;20538;-71
2022/04/02 01:25:22;;;;;;;5.13;2.13;;;;;;;2.86;52.52;100661.97;5064717;28;20557;-71
2022/04/02 01:27:49;;;;;;;3.50;1.02;;;;;;;2.79;52.88;100655.22;5068606;28;20435;-71
2022/04/02 01:30:16;;;;;;;2.53;1.10;;;;;;;2.77;52.87;100670.75;5064728;28;20107;-71
2022/04/02 01:32:43;;;;;;;9.55;1.90;;;;;;;2.91;52.66;100667.91;5068511;28;20068;-71
2022/04/02 01:35:11;;;;;;;3.83;1.48;;;;;;;2.97;52.70;100664.31;5067770;28;20048;-71
2022/04/02 01:37:39;;;;;;;5.35;1.52;;;;;;;2.84;52.77;100671.50;5067805;28;20094;-71
2022/04/02 01:40:08;;;;;;;4.57;1.60;;;;;;;2.94;52.49;100671.28;5065777;28;20094;-71
2022/04/02 01:42:34;;;;;;;3.90;1.40;;;;;;;2.60;53.43;100670.28;5070004;28;20075;-71
2022/04/02 01:45:01;;;;;;;3.78;1.52;;;;;;;2.65;53.33;100673.63;5069267;28;20102;-71
2022/04/02 01:47:27;;;;;;;6.78;1.75;;;;;;;2.26;54.43;100674.38;5068793;28;20056;-71
2022/04/02 01:49:53;;;;;;;3.20;1.40;;;;;;;2.52;54.01;100682.50;5067314;28;20045;-71
2022/04/02 01:52:21;;;;;;;3.35;1.65;;;;;;;2.48;54.09;100675.69;5061359;28;20048;-71
2022/04/02 01:54:48;;;;;;;3.03;1.35;;;;;;;2.53;54.10;100681.63;5066695;28;20053;-71
2022/04/02 01:57:17;;;;;;;5.55;2.03;;;;;;;2.42;54.52;100673.22;5053773;28;20049;-71
2022/04/02 01:59:44;;;;;;;4.20;1.60;;;;;;;2.52;54.14;100685.09;5069322;28;20420;-71
2022/04/02 02:02:11;;;;;;;3.10;1.30;;;;;;;2.64;54.02;100678.81;5068867;28;20403;-71
2022/04/02 02:04:38;;;;;;;3.33;1.63;;;;;;;2.52;54.33;100685.09;5067634;28;20064;-71
2022/04/02 02:07:06;;;;;;;2.60;1.50;;;;;;;2.41;54.38;100681.88;5069985;28;20049;-71
2022/04/02 02:09:33;;;;;;;9.30;1.63;;;;;;;2.27;55.11;100684.72;5068431;28;20041;-72
2022/04/02 02:12:00;;;;;;;4.47;1.67;;;;;;;2.37;54.82;100685.38;5069251;28;20569;-72
2022/04/02 02:14:28;;;;;;;5.20;2.03;;;;;;;2.58;54.23;100682.41;5068462;28;20098;-72
2022/04/02 02:16:55;;;;;;;3.88;1.70;;;;;;;2.42;54.86;100676.66;5068119;28;20139;-72
2022/04/02 02:19:22;;;;;;;5.03;1.88;;;;;;;2.43;54.68;100677.53;5068762;28;20049;-72
2022/04/02 02:21:48;;;;;;;5.22;1.30;;;;;;;2.48;54.61;100675.69;5077264;28;20044;-72
2022/04/02 02:24:14;;;;;;;12.88;1.88;;;;;;;2.45;54.61;100680.94;5068333;28;20094;-72
2022/04/02 02:26:41;;;;;;;3.45;1.73;;;;;;;2.18;55.34;100679.72;5069361;28;20102;-72
2022/04/02 02:29:07;;;;;;;3.88;1.40;;;;;;;2.18;55.21;100689.22;5067731;28;20489;-72
2022/04/02 02:31:35;;;;;;;5.18;1.73;;;;;;;1.99;55.93;100687.84;5068522;28;20040;-72
2022/04/02 02:36:45;;;;;;;3.35;1.38;;;;;;;2.10;55.53;100699.72;5068665;28;20060;-72
2022/04/02 02:39:12;;;;;;;4.88;1.75;;;;;;;2.14;55.35;100701.38;5068028;28;20048;-72
2022/04/02 02:41:38;;;;;;;3.47;1.50;;;;;;;2.07;55.64;100696.31;5069115;28;20106;-73
2022/04/02 02:44:05;;;;;;;3.13;1.50;;;;;;;1.88;55.84;100704.41;5068286;28;20052;-73
2022/04/02 02:46:32;;;;;;;4.72;1.52;;;;;;;1.96;55.72;100699.94;5067931;28;20049;-72
2022/04/02 02:49:00;;;;;;;3.92;1.85;;;;;;;1.91;55.78;100694.00;5068284;28;20071;-72
2022/04/02 02:51:26;;;;;;;4.25;1.98;;;;;;;1.77;56.11;100690.81;5067932;28;20040;-72
2022/04/02 02:53:53;;;;;;;6.03;1.65;;;;;;;1.78;56.18;100702.81;5068783;28;20049;-72
2022/04/02 02:56:19;;;;;;;6.78;1.58;;;;;;;1.87;56.00;100707.88;5067974;28;20070;-72
2022/04/02 02:58:46;;;;;;;5.13;1.70;;;;;;;1.99;55.68;100705.94;5067143;28;20044;-72
2022/04/02 03:01:12;;;;;;;5.63;1.30;;;;;;;1.82;56.18;100712.25;5067685;28;20114;-72
2022/04/02 03:03:39;;;;;;;3.85;1.50;;;;;;;1.83;56.27;100711.38;5068337;28;20048;-72
2022/04/02 03:06:06;;;;;;;4.47;1.48;;;;;;;1.73;56.88;100709.81;5067969;28;20467;-72
2022/04/02 03:08:32;;;;;;;5.55;1.80;;;;;;;1.78;57.01;100712.31;5067931;28;20044;-72
2022/04/02 03:10:59;;;;;;;2.70;1.38;;;;;;;1.66;57.27;100712.53;5067753;28;20129;-72
2022/04/02 03:13:25;;;;;;;3.65;2.03;;;;;;;1.76;57.22;100709.78;5067996;28;20103;-72
2022/04/02 03:15:52;;;;;;;4.05;1.70;;;;;;;1.68;57.49;100713.34;5066156;28;20048;-72
2022/04/02 03:18:18;;;;;;;3.92;1.52;;;;;;;1.89;57.01;100707.81;5067898;28;20044;-72
2022/04/02 03:20:45;;;;;;;7.43;1.92;;;;;;;1.77;57.17;100713.22;5067357;28;20117;-72
2022/04/02 03:23:12;;;;;;;3.60;2.30;;;;;;;1.84;56.82;100710.50;5067233;28;20045;-72
2022/04/02 03:25:39;;;;;;;5.70;1.58;;;;;;;1.71;57.39;100711.56;5067174;28;20053;-72
2022/04/02 03:28:06;;;;;;;8.27;1.92;;;;;;;1.68;57.58;100709.03;5067393;28;20106;-73
2022/04/02 03:30:33;;;;;;;5.78;1.90;;;;;;;1.80;57.17;100715.75;5067264;28;20047;-73
2022/04/02 03:32:59;;;;;;;5.28;1.65;;;;;;;1.70;57.44;100720.19;5066301;28;20488;-73
2022/04/02 03:35:26;;;;;;;4.93;1.55;;;;;;;1.47;57.94;100717.13;5063523;28;20117;-72
2022/04/02 03:37:53;;;;;;;7.18;2.17;;;;;;;1.39;58.25;100722.41;5046882;28;20094;-72
2022/04/02 03:40:23;;;;;;;3.63;1.60;;;;;;;1.38;58.41;100720.69;5059776;28;20454;-72
2022/04/02 03:42:50;;;;;;;3.58;1.45;;;;;;;1.17;59.12;100718.41;5065783;28;20052;-72
2022/04/02 03:45:18;;;;;;;6.28;2.00;;;;;;;1.26;59.03;100720.84;5067435;28;20045;-72
2022/04/02 03:47:47;;;;;;;2.80;1.40;;;;;;;1.30;59.06;100722.53;5066795;28;20053;-72
2022/04/02 03:50:14;;;;;;;5.45;1.50;;;;;;;1.34;58.93;100731.09;5066465;28;20098;-72
2022/04/02 03:52:41;;;;;;;2.90;1.40;;;;;;;1.38;58.74;100737.91;5065896;28;20040;-72
2022/04/02 03:55:08;;;;;;;4.75;1.58;;;;;;;1.40;58.79;100734.44;5067817;28;20052;-72
2022/04/02 03:57:36;;;;;;;3.70;1.63;;;;;;;1.37;58.73;100738.78;5066869;28;20045;-72
2022/04/02 04:00:05;;;;;;;5.30;1.55;;;;;;;1.34;58.80;100736.25;5066847;28;20106;-72
2022/04/02 04:02:34;;;;;;;4.82;1.65;;;;;;;1.37;58.73;100731.88;5066882;28;20068;-73
2022/04/02 04:05:00;;;;;;;3.00;1.58;;;;;;;1.17;59.38;100738.22;5066661;28;20048;-73
2022/04/02 04:07:27;;;;;;;2.97;1.50;;;;;;;1.19;59.66;100731.28;5067937;28;20045;-73
2022/04/02 04:09:53;;;;;;;4.32;1.65;;;;;;;1.32;59.21;100732.84;5064876;28;20118;-73
2022/04/02 04:12:20;;;;;;;5.13;1.50;;;;;;;1.25;59.62;100734.66;5065869;28;20064;-72
2022/04/02 04:14:47;;;;;;;3.25;1.40;;;;;;;1.11;60.25;100733.16;5064813;28;20048;-73
2022/04/02 04:17:14;;;;;;;3.45;1.65;;;;;;;1.34;59.49;100731.94;5067577;28;20092;-73
2022/04/02 04:19:41;;;;;;;5.40;1.73;;;;;;;1.57;58.61;100734.19;5065303;28;20155;-72
2022/04/02 04:22:07;;;;;;;6.97;2.15;;;;;;;1.38;59.18;100738.78;5067857;28;20049;-72
2022/04/02 04:24:33;;;;;;;5.13;1.80;;;;;;;1.43;59.20;100736.13;5067378;28;20526;-72
2022/04/02 04:27:00;;;;;;;2.75;1.30;;;;;;;1.10;60.10;100746.94;5067426;28;20098;-72
2022/04/02 04:29:26;;;;;;;4.90;1.70;;;;;;;1.25;60.04;100752.75;5064856;28;20040;-72
2022/04/02 04:31:54;;;;;;;6.47;1.70;;;;;;;1.23;60.07;100749.31;5049447;28;20103;-73
2022/04/02 04:34:21;;;;;;;5.38;2.03;;;;;;;1.34;59.97;100756.91;5067348;28;20098;-73
2022/04/02 04:36:47;;;;;;;2.08;1.27;;;;;;;1.36;59.76;100757.75;5066963;28;20052;-73
2022/04/02 04:39:13;;;;;;;3.70;1.73;;;;;;;1.55;59.06;100769.56;5067502;28;20048;-73
2022/04/02 04:41:41;;;;;;;4.75;1.80;;;;;;;1.59;58.83;100767.78;5066904;28;20562;-72
2022/04/02 04:44:07;;;;;;;5.00;1.55;;;;;;;1.40;59.58;100768.00;5065227;28;20053;-73
2022/04/02 04:46:34;;;;;;;4.55;1.33;;;;;;;1.43;59.43;100783.50;5065965;28;20092;-73
2022/04/02 04:49:01;;;;;;;4.88;1.30;;;;;;;1.30;59.87;100781.06;5064998;28;20044;-72
2022/04/02 04:51:28;;;;;;;4.03;1.60;;;;;;;1.40;59.46;100780.09;5067288;28;20385;-72
2022/04/02 04:53:55;;;;;;;4.68;1.55;;;;;;;1.33;59.83;100781.88;5066894;28;20492;-72
2022/04/02 04:56:21;;;;;;;4.40;1.48;;;;;;;1.52;59.37;100774.75;5067114;28;20170;-73
2022/04/02 04:58:47;;;;;;;8.30;1.80;;;;;;;1.57;59.33;100782.44;5066615;28;20102;-73
2022/04/02 05:01:14;;;;;;;5.53;1.88;;;;;;;1.68;59.01;100785.72;5070089;28;20044;-72
2022/04/02 05:03:41;;;;;;;3.90;1.70;;;;;;;1.61;58.98;100797.88;5070329;28;20478;-72
2022/04/02 05:06:12;;;;;;;4.32;1.45;;;;;;;1.55;59.02;100805.72;5070063;28;20048;-72
2022/04/02 05:08:39;;;;;;;3.85;1.70;;;;;;;1.66;59.24;100800.41;5070498;28;20432;-73
2022/04/02 05:11:05;;;;;;;3.65;1.50;;;;;;;1.73;58.74;100794.28;5069401;28;20044;-71
2022/04/02 05:13:31;;;;;;;4.18;1.42;;;;;;;1.66;58.99;100798.69;5067436;28;20076;-72
2022/04/02 05:15:58;;;;;;;5.97;1.63;;;;;;;1.75;58.75;100808.88;5068539;28;20048;-73
2022/04/02 05:18:25;;;;;;;5.07;1.85;;;;;;;1.74;58.73;100807.16;5070899;28;20040;-73
2022/04/02 05:20:51;;;;;;;5.07;1.50;;;;;;;1.59;58.87;100799.63;5069128;28;20397;-73
2022/04/02 05:23:19;;;;;;;2.83;1.60;;;;;;;1.71;58.66;100807.19;5070033;28;20094;-72
2022/04/02 05:25:45;;;;;;;4.82;1.40;;;;;;;1.61;58.87;100803.06;5069700;28;20048;-71
2022/04/02 05:28:12;;;;;;;2.92;1.40;;;;;;;1.75;58.67;100810.59;5070143;28;20105;-72
2022/04/02 05:30:39;;;;;;;5.63;1.92;;;;;;;1.76;58.34;100808.00;5068963;28;20105;-71
2022/04/02 05:33:06;;;;;;;7.45;1.80;;;;;;;1.98;57.80;100815.44;5068980;28;20703;-73
2022/04/02 05:35:32;;;;;;;4.05;1.45;;;;;;;1.91;57.61;100814.66;5070525;28;20093;-73
2022/04/02 05:37:58;;;;;;;3.35;1.42;;;;;;;2.02;57.67;100819.69;5070022;28;20478;-73
2022/04/02 05:40:26;;;;;;;4.38;2.10;;;;;;;2.03;57.36;100822.25;5067391;28;20838;-71
2022/04/02 05:42:53;;;;;;;4.57;1.60;;;;;;;2.20;56.78;100829.72;5070471;28;20049;-71
2022/04/02 05:45:19;;;;;;;3.08;1.58;;;;;;;2.28;56.93;100825.28;5071615;28;20063;-71
2022/04/02 05:47:48;;;;;;;7.88;1.73;;;;;;;1.97;57.37;100827.50;5070456;28;20102;-71
2022/04/02 05:50:15;;;;;;;4.68;1.80;;;;;;;1.88;57.60;100833.69;5068348;28;20106;-71
2022/04/02 05:52:42;;;;;;;7.65;1.67;;;;;;;2.19;56.90;100835.78;5066926;28;20412;-70
2022/04/02 05:55:10;;;;;;;5.28;1.77;;;;;;;2.13;57.05;100836.75;5069347;28;20060;-70
2022/04/02 05:57:38;;;;;;;4.55;1.88;;;;;;;2.09;57.44;100835.06;5069684;28;20048;-70
2022/04/02 06:00:07;;;;;;;4.30;2.70;;;;;;;2.27;56.89;100841.69;5067600;28;20102;-70
2022/04/02 06:02:33;;;;;;;3.63;1.70;;;;;;;2.51;56.42;100846.47;5069873;28;20044;-70
2022/04/02 06:05:00;;;;;;;3.78;1.70;;;;;;;2.49;56.33;100853.38;5068426;28;20421;-70
2022/04/02 06:07:27;;;;;;;4.50;1.75;;;;;;;2.47;56.68;100854.31;5069559;28;20048;-70
2022/04/02 06:09:53;;;;;;;3.35;1.33;;;;;;;2.28;56.81;100852.03;5068619;28;20048;-71
2022/04/02 06:12:20;;;;;;;4.82;1.63;;;;;;;2.14;57.31;100855.72;5065894;28;20041;-70
2022/04/02 06:14:47;;;;;;;4.07;1.88;;;;;;;2.27;57.26;100862.38;5069374;28;20052;-70
2022/04/02 06:17:14;;;;;;;6.63;1.80;;;;;;;2.31;57.08;100869.22;5066155;28;20494;-70
2022/04/02 06:19:40;;;;;;;3.63;2.10;;;;;;;2.60;56.83;100876.50;5066591;28;20122;-71
2022/04/02 06:22:07;;;;;;;3.90;1.85;;;;;;;2.30;57.53;100877.84;5068479;28;20113;-70
2022/04/02 06:24:33;;;;;;;4.30;2.03;;;;;;;2.38;57.25;100881.19;5066758;28;20431;-70
2022/04/02 06:27:00;;;;;;;3.25;1.88;;;;;;;2.55;56.77;100880.91;5067540;28;20044;-70
2022/04/02 06:29:26;;;;;;;3.50;1.83;;;;;;;2.74;56.45;100877.09;5068184;28;20538;-71
2022/04/02 06:31:54;;;;;;;5.03;2.03;;;;;;;2.83;56.54;100890.75;5067133;28;20044;-71
2022/04/02 06:34:21;;;;;;;5.15;2.13;;;;;;;2.86;56.64;100885.53;5066819;28;20097;-71
2022/04/02 06:36:47;;;;;;;3.00;1.70;;;;;;;2.97;56.02;100881.88;5067425;28;20053;-71
2022/04/02 06:39:14;;;;;;;5.25;2.40;;;;;;;3.00;56.35;100885.25;5054169;28;20094;-71
2022/04/02 06:41:40;;;;;;;3.85;1.90;;;;;;;3.14;56.53;100895.38;5065895;28;20098;-71
2022/04/02 06:44:08;;;;;;;3.75;1.80;;;;;;;3.44;55.26;100880.06;5067393;28;20044;-71
2022/04/02 06:46:34;;;;;;;5.15;2.03;;;;;;;3.27;55.20;100876.13;5066556;28;20072;-71
2022/04/02 06:49:02;;;;;;;4.32;2.08;;;;;;;3.30;55.53;100886.41;5067517;28;20074;-71
2022/04/02 06:51:28;;;;;;;3.88;1.88;;;;;;;3.14;56.12;100887.63;5066437;28;20072;-71
2022/04/02 06:53:55;;;;;;;11.55;2.25;;;;;;;2.96;56.24;100891.38;5066939;28;20049;-70
2022/04/02 06:56:21;;;;;;;5.70;1.60;;;;;;;3.01;56.47;100886.13;5067496;28;20463;-70
2022/04/02 06:58:48;;;;;;;4.05;1.85;;;;;;;3.05;56.56;100896.41;5065252;28;20412;-70
2022/04/02 07:01:15;;;;;;;6.38;2.00;;;;;;;2.91;56.99;100904.44;5066816;28;20111;-70
2022/04/02 07:03:41;;;;;;;2.72;1.80;;;;;;;3.15;56.37;100895.34;5066601;28;20105;-70
2022/04/02 07:06:09;;;;;;;3.55;1.90;;;;;;;3.20;56.44;100901.31;5066743;28;20053;-70
2022/04/02 07:08:36;;;;;;;5.63;2.30;;;;;;;3.15;56.60;100907.44;5062958;28;20557;-70
2022/04/02 07:11:02;;;;;;;6.03;2.30;;;;;;;3.47;56.32;100906.84;5066529;28;20460;-70
2022/04/02 07:13:29;;;;;;;8.15;2.17;;;;;;;3.64;55.66;100902.16;5066904;28;20045;-70
2022/04/02 07:15:56;;;;;;;2.88;1.70;;;;;;;3.54;55.75;100911.88;5066901;28;20060;-71
2022/04/02 07:18:25;;;;;;;5.68;2.10;;;;;;;3.52;55.47;100913.63;5065828;28;20048;-71
2022/04/02 07:20:53;;;;;;;5.90;1.95;;;;;;;3.61;55.24;100908.25;5065864;28;20105;-71
2022/04/02 07:23:21;;;;;;;5.10;1.95;;;;;;;3.74;55.36;100907.13;5064837;28;20102;-71
2022/04/02 07:25:49;;;;;;;3.97;2.08;;;;;;;4.26;55.12;100916.34;5067357;28;20121;-71
2022/04/02 07:28:16;;;;;;;5.50;2.13;;;;;;;4.53;53.66;100917.44;5065820;28;20049;-72
2022/04/02 07:30:42;;;;;;;5.05;2.33;;;;;;;4.59;52.88;100914.69;5067020;28;20048;-72
2022/04/02 07:33:09;;;;;;;4.93;1.85;;;;;;;4.54;53.42;100919.16;5065347;28;20101;-72
2022/04/02 07:35:42;;;;;;;5.88;2.35;;;;;;;4.79;52.45;100915.91;5068225;28;20048;-72
2022/04/02 07:38:13;;;;;;;5.13;2.17;;;;;;;5.02;52.07;100917.06;5066163;28;20052;-72
2022/04/02 07:40:45;;;;;;;4.97;2.20;;;;;;;5.31;51.78;100914.53;5063780;28;20048;-72
2022/04/02 07:43:20;;;;;;;6.90;2.05;;;;;;;6.11;50.65;100927.84;5065962;28;20149;-72
2022/04/02 07:45:52;;;;;;;4.75;2.13;;;;;;;6.60;48.92;100913.28;5066593;28;20044;-72
2022/04/02 07:48:19;;;;;;;4.13;2.33;;;;;;;7.40;47.70;100913.09;5063350;28;20040;-72
2022/04/02 07:50:46;;;;;;;6.25;2.33;;;;;;;7.57;46.56;100908.16;5066806;28;20036;-72
2022/04/02 07:53:19;;;;;;;6.35;2.40;;;;;;;7.83;45.66;100907.19;5064779;28;20933;-71
2022/04/02 07:55:51;;;;;;;4.57;1.85;;;;;;;7.91;45.60;100905.09;5065963;28;20054;-70
2022/04/02 07:58:24;;;;;;;5.10;1.90;;;;;;;7.87;45.24;100911.34;5065603;28;20044;-70
2022/04/02 08:00:55;;;;;;;6.40;2.15;;;;;;;8.08;45.60;100913.16;5057496;28;20357;-70
2022/04/02 08:03:24;;;;;;;4.22;1.90;;;;;;;8.57;44.20;100912.06;5064870;28;20049;-70
2022/04/02 08:05:50;;;;;;;6.65;2.53;;;;;;;8.79;43.61;100912.06;5064841;28;20673;-71
2022/04/02 08:08:17;;;;;;;6.40;3.17;;;;;;;8.81;43.08;100918.06;5066400;28;20070;-70
2022/04/02 08:10:46;;;;;;;6.57;2.53;;;;;;;8.65;42.35;100915.22;5066169;28;20584;-70
2022/04/02 08:13:16;;;;;;;3.83;2.30;;;;;;;8.95;42.21;100920.09;5062665;28;20068;-70
2022/04/02 08:15:42;;;;;;;7.15;2.50;;;;;;;9.05;42.04;100927.53;5060601;28;20130;-70
2022/04/02 08:18:09;;;;;;;4.40;2.03;;;;;;;9.95;40.12;100915.63;5067021;28;20102;-70
2022/04/02 08:20:35;;;;;;;7.18;3.25;;;;;;;10.45;39.17;100919.41;5047201;28;20041;-70
2022/04/02 08:23:02;;;;;;;5.22;2.78;;;;;;;11.26;37.87;100918.81;5059656;28;20048;-71
2022/04/02 08:25:28;;;;;;;8.25;3.63;;;;;;;10.71;37.39;100910.25;5065471;28;20041;-70
2022/04/02 08:28:05;;;;;;;7.50;3.85;;;;;;;10.13;39.62;100923.50;5064939;28;20064;-70
2022/04/02 08:30:34;;;;;;;4.97;2.47;;;;;;;9.45;39.87;100929.25;5066981;28;20051;-70
2022/04/02 08:33:29;;;;;;;7.00;4.47;;;;;;;9.10;40.41;100924.69;5064907;28;20091;-70
2022/04/02 08:36:04;;;;;;;5.55;2.55;;;;;;;9.69;42.48;100928.16;5069659;28;20111;-70
2022/04/02 08:38:43;;;;;;;5.82;2.53;;;;;;;9.22;40.88;100934.63;5064062;28;20462;-70
2022/04/02 08:41:55;;;;;;;3.78;2.30;;;;;;;8.61;40.71;100939.78;5069395;28;20069;-70
2022/04/02 08:45:03;;;;;;;3.75;2.00;;;;;;;7.69;42.52;100939.00;5055273;28;20036;-70
2022/04/02 08:48:11;;;;;;;5.68;2.45;;;;;;;7.93;43.69;100949.44;5068184;28;20036;-72
2022/04/02 08:50:43;;;;;;;4.22;1.85;;;;;;;7.81;48.41;100951.59;5060759;28;20405;-70
2022/04/02 08:53:20;;;;;;;3.95;2.08;;;;;;;7.59;42.52;100945.47;5069477;28;20064;-70
2022/04/02 08:55:49;;;;;;;4.63;1.98;;;;;;;7.09;42.89;100942.03;5070009;28;20117;-70
2022/04/02 08:58:50;;;;;;;4.32;2.17;;;;;;;6.81;44.34;100954.25;5068756;28;20040;-70
2022/04/02 09:01:25;;;;;;;5.15;2.10;;;;;;;6.85;44.66;100946.28;5064599;28;20040;-70
2022/04/02 09:04:27;;;;;;;4.22;1.80;;;;;;;6.59;44.61;100951.50;5068802;28;20048;-70
2022/04/02 09:07:31;;;;;;;4.25;2.08;;;;;;;6.94;45.09;100949.50;5048052;28;20065;-71
2022/04/02 09:10:21;;;;;;;4.65;1.98;;;;;;;6.76;44.38;100954.41;5042425;28;20385;-71
2022/04/02 09:13:06;;;;;;;2.33;1.50;;;;;;;6.52;44.98;100951.75;5045514;28;20065;-71
2022/04/02 09:15:47;;;;;;;4.53;1.83;;;;;;;6.45;45.54;100956.31;5053962;28;20086;-70
2022/04/02 09:18:35;;;;;;;2.92;1.67;;;;;;;6.16;45.88;100954.59;5057634;28;20061;-70
2022/04/02 09:21:04;;;;;;;3.92;1.83;;;;;;;6.23;45.96;100952.66;5029639;28;20075;-71
2022/04/02 09:23:43;;;;;;;3.03;1.52;;;;;;;6.36;45.00;100962.63;5034880;28;20040;-71
2022/04/02 09:26:52;;;;;;;3.97;1.70;;;;;;;6.28;45.86;100953.38;5065711;28;20060;-71
2022/04/02 09:29:27;;;;;;;8.10;2.80;;;;;;;6.73;46.74;100951.91;5048492;28;20511;-71
2022/04/02 09:32:16;;;;;;;7.53;1.65;;;;;;;6.67;44.69;100952.13;5068432;28;20480;-71
2022/04/02 09:35:14;;;;;;;5.07;1.95;;;;;;;7.77;44.40;100951.75;5065391;28;20101;-71
2022/04/02 09:38:19;;;;;;;6.00;2.05;;;;;;;8.75;41.22;100936.63;5068342;28;20406;-71
2022/04/02 09:40:48;;;;;;;5.50;2.50;;;;;;;10.06;41.29;100937.81;5002040;28;20058;-72
2022/04/02 09:43:26;;;;;;;3.95;2.03;;;;;;;10.23;40.23;100942.31;5054132;28;20044;-68
2022/04/02 09:46:08;;;;;;;3.60;2.20;;;;;;;11.09;39.45;100935.41;5067988;28;20480;-68
2022/04/02 09:48:43;;;;;;;3.28;1.67;;;;;;;11.41;36.24;100936.41;5070156;28;20386;-68
2022/04/02 09:51:12;;;;;;;5.95;2.50;;;;;;;10.09;39.44;100948.13;5058869;28;20496;-67
2022/04/02 09:53:45;;;;;;;5.43;2.10;;;;;;;9.66;38.77;100949.25;5069981;28;20060;-67
2022/04/02 09:56:25;;;;;;;3.38;1.85;;;;;;;9.71;38.55;100949.06;5069584;28;20045;-67
2022/04/02 09:59:04;;;;;;;10.38;2.47;;;;;;;9.87;39.01;100947.41;5065280;28;20044;-67
2022/04/02 10:01:34;;;;;;;3.72;2.00;;;;;;;9.83;38.52;100951.09;5063693;28;20128;-67
2022/04/02 10:04:01;;;;;;;4.22;1.98;;;;;;;9.03;39.05;100960.72;5068634;28;20436;-68
2022/04/02 10:06:35;;;;;;;10.68;1.77;;;;;;;8.77;39.66;100953.09;5065398;28;20064;-68
2022/04/02 10:09:08;;;;;;;14.77;2.50;;;;;;;9.04;40.35;100953.72;5069267;28;20098;-67
2022/04/02 10:11:40;;;;;;;7.22;2.35;;;;;;;9.40;40.13;100954.78;5069025;28;20047;-67
2022/04/02 10:14:07;;;;;;;6.00;2.40;;;;;;;8.82;39.97;100947.69;5068899;28;20113;-67
2022/04/02 10:16:35;;;;;;;4.95;2.20;;;;;;;8.95;42.69;100961.94;5069569;28;20796;-68
2022/04/02 10:19:07;;;;;;;4.07;1.85;;;;;;;9.05;40.76;100955.44;5068440;28;20055;-68
2022/04/02 10:21:36;;;;;;;3.42;1.95;;;;;;;8.88;42.43;100956.13;5068263;28;20477;-68
2022/04/02 10:24:08;;;;;;;5.20;2.10;;;;;;;8.65;40.65;100954.44;5069524;28;20112;-67
2022/04/02 10:26:40;;;;;;;3.90;1.90;;;;;;;8.45;42.86;100966.63;5068594;28;20037;-67
2022/04/02 10:29:12;;;;;;;3.90;2.17;;;;;;;8.80;41.72;100955.59;5068137;28;20408;-67
2022/04/02 10:31:45;;;;;;;4.07;2.17;;;;;;;8.69;42.50;100963.00;5064906;28;20045;-68
2022/04/02 10:34:13;;;;;;;8.63;2.22;;;;;;;8.92;40.45;100959.47;5064866;28;20633;-68
2022/04/02 10:36:45;;;;;;;7.90;2.13;;;;;;;9.00;41.00;100965.22;5068360;28;20048;-67
2022/04/02 10:39:16;;;;;;;3.83;1.93;;;;;;;9.48;42.49;100954.44;5067587;28;20564;-68
2022/04/02 10:41:45;;;;;;;6.20;2.38;;;;;;;10.23;40.56;100950.16;5068909;28;20066;-68
2022/04/02 10:44:22;;;;;;;2.85;1.60;;;;;;;10.24;39.87;100946.59;5064921;28;20389;-68
2022/04/02 10:46:50;;;;;;;6.25;1.90;;;;;;;10.21;37.14;100947.63;5065213;28;20154;-68
2022/04/02 10:49:20;;;;;;;4.30;2.05;;;;;;;9.53;39.56;100947.25;5069115;28;20502;-68
2022/04/02 10:51:53;;;;;;;2.70;1.33;;;;;;;8.84;38.72;100949.31;5066913;28;20040;-68
2022/04/02 10:54:23;;;;;;;;;;;;;;;8.55;40.96;100960.09;5067983;28;20055;-68
2022/04/02 10:56:51;;;;;;;3.67;1.60;;;;;;;8.07;41.50;100952.38;5066672;28;20460;-68
2022/04/02 10:59:19;;;;;;;4.35;1.73;;;;;;;7.80;40.91;100960.31;5067193;28;20079;-68
2022/04/02 11:01:48;;;;;;;4.05;1.70;;;;;;;7.45;41.53;100967.72;5068692;28;20097;-68
2022/04/02 11:04:27;;;;;;;4.60;1.92;;;;;;;6.87;43.16;100969.72;5068283;28;20043;-68
2022/04/02 11:06:54;;;;;;;4.78;2.00;;;;;;;7.27;43.10;100967.47;5067308;28;20059;-68
2022/04/02 11:09:28;;;;;;;4.07;1.92;;;;;;;7.41;42.81;100961.78;5067940;28;20389;-68
2022/04/02 11:11:58;;;;;;;3.42;1.83;;;;;;;6.97;43.38;100960.69;5068385;28;20062;-68
2022/04/02 11:14:25;;;;;;;3.70;1.85;;;;;;;7.03;44.15;100959.63;5067950;28;20129;-68
2022/04/02 11:16:51;;;;;;;5.28;2.30;;;;;;;7.12;43.83;100960.19;5068218;28;20098;-68
2022/04/02 11:22:08;;;;;;;4.13;2.20;;;;;;;7.28;43.90;100965.69;5066768;28;20055;-68
2022/04/02 11:24:39;;;;;;;8.75;3.80;;;;;;;6.64;46.37;100962.63;5065793;28;20082;-68
2022/04/02 11:27:15;;;;;;;10.68;6.22;;;;;;;6.79;46.34;100969.13;5066241;28;20040;-68
2022/04/02 11:29:50;;;;;;;8.48;4.53;;;;;;;6.97;46.30;100960.69;5065400;28;20141;-67
2022/04/02 11:32:23;;;;;;;5.55;2.92;;;;;;;6.92;45.73;100962.59;5066118;28;20107;-67
2022/04/02 11:34:51;;;;;;;6.22;3.13;;;;;;;6.78;44.81;100964.78;5067395;28;20431;-67
2022/04/02 11:37:24;;;;;;;7.85;3.53;;;;;;;6.70;44.87;100957.22;5068259;28;20113;-67
2022/04/02 11:39:54;;;;;;;4.45;2.70;;;;;;;6.23;45.31;100965.66;5066868;28;20741;-67
2022/04/02 11:42:25;;;;;;;4.47;2.45;;;;;;;6.07;46.63;100965.28;5067509;28;20040;-67
2022/04/02 11:44:53;;;;;;;6.28;1.98;;;;;;;6.20;46.06;100979.66;5065816;28;20053;-68
2022/04/02 11:47:27;;;;;;;4.15;1.70;;;;;;;6.27;46.52;100978.56;5068273;28;20049;-67
2022/04/02 11:49:55;;;;;;;6.50;2.20;;;;;;;6.45;46.44;100977.13;5066737;28;20094;-67
2022/04/02 11:52:21;;;;;;;5.05;2.22;;;;;;;6.61;46.43;100978.38;5066637;28;20097;-67
2022/04/02 11:54:59;;;;;;;5.38;2.20;;;;;;;6.58;46.52;100970.63;5067639;28;20044;-68